Nearby METAR (Airport) Reports

 

KPRN - Greenville, Alabama, USA
Distance from station: WNW 17mi, 28km
Updated: Thu, 16-Aug-2018 1:16pm CDT
Thunderstorm, Mostly cloudy
Thunderstorm, Mostly cloudy
 Wind from S
Wind: S 7 mph , 11 km/h
Temperature: 86°F , 30°C
Heat Index: 92°F , 33°C
Dew Point: 72°F , 22°C
Humidity: 62%
Barometer: 30.13 inHg , 1020.3 hPa
Summary: Thunderstorm
Clouds: Mostly cloudy
Visibility: 10 miles , 16 km
Cloud details: Partly cloudy 2700 ft
Mostly cloudy 8000 ft
2018/08/16 18:16 KPRN 161816Z AUTO 19006KT 10SM TS SCT027 BKN080 30/22 A3013 RMK AO2 TSB10 T03000222
KTOI - Troy, Alabama, USA
Distance from station: ENE 21mi, 34km
Updated: Thu, 16-Aug-2018 1:02pm CDT
Nearby thunderstorm, Clear
Nearby thunderstorm, Clear
 Wind from SE
Wind: SE 7 mph , 11 km/h
Temperature: 79°F , 26°C
Dew Point: 73°F , 23°C
Humidity: 84%
Barometer: 30.16 inHg , 1021.3 hPa
Summary: Nearby Thunderstorm
Clouds: Clear
Visibility: 10 miles , 16 km
2018/08/16 18:02 KTOI 161802Z AUTO 14006KT 10SM VCTS CLR 26/23 A3016 RMK AO2 LTG DSNT ALQDS TSE1756 T02560228
K79J - Andalusia/Opp Ar, Alabama, USA
Distance from station: S 29mi, 47km
Updated: Thu, 16-Aug-2018 1:10pm CDT
Partly cloudy
Partly cloudy
 Wind from S
Wind: S 8 mph , 13 km/h
Temperature: 88°F , 31°C
Heat Index: 96°F , 36°C
Dew Point: 73°F , 23°C
Humidity: 62%
Barometer: 30.15 inHg , 1021 hPa
Clouds: Partly cloudy
Visibility: 10 miles , 16 km
Cloud details: Few Clouds 7000 ft
Partly cloudy 12000 ft
2018/08/16 18:10 K79J 161810Z AUTO 19007KT 10SM FEW070 SCT120 31/23 A3015 RMK AO2 TSE04 T03110233
 
KMGM - Montgomery, Alabama, USA
Distance from station: N 39mi, 63km
Updated: Thu, 16-Aug-2018 12:53pm CDT
Mostly cloudy
Mostly cloudy
 Wind from varies
Wind: varies 3 mph , 6 km/h
Temperature: 90°F , 32°C
Heat Index: 99°F , 37°C
Dew Point: 73°F , 23°C
Humidity: 59%
Barometer: 30.13 inHg , 1020.3 hPa
Clouds: Mostly cloudy
Visibility: 10 miles , 16 km
Cloud details: Mostly cloudy 3900 ft
Mostly cloudy 5000 ft
2018/08/16 17:53 KMGM 161753Z VRB03KT 10SM BKN039 BKN050 32/23 A3013 RMK AO2 SLP198 T03220228 10333 20233 58009
KMXF - Maxwell Afb/Mgm, Alabama, USA
Distance from station: N 44mi, 70km
Updated: Thu, 16-Aug-2018 12:56pm CDT
Partly cloudy
Partly cloudy
 Wind from NNW
Wind: NNW 3 mph , 6 km/h
Temperature: 90°F , 32°C
Heat Index: 99°F , 37°C
Dew Point: 73°F , 23°C
Humidity: 59%
Clouds: Partly cloudy
Visibility: 10 miles , 16 km
Cloud details: Few Clouds 4400 ft
Few Clouds 6500 ft
Partly cloudy 20000 ft
2018/08/16 17:56 KMXF 161756Z AUTO 33003KT 10SM FEW044 FEW065 SCT200 32/23 M RMK AO2 SLPNO T03180230 10319 20238 $
KLOR - Lowe Ahp/Ft. Ruc, Alabama, USA
Distance from station: SE 44mi, 71km
Updated: Thu, 16-Aug-2018 1:18pm CDT
Mostly cloudy
Mostly cloudy
 Wind from NNW
Wind: NNW 5 mph , 7 km/h
Temperature: 82°F , 28°C
Heat Index: 87°F , 31°C
Dew Point: 73°F , 23°C
Humidity: 74%
Barometer: 30.15 inHg , 1021 hPa
Clouds: Mostly cloudy
Visibility: 10 miles , 16 km
Cloud details: Mostly cloudy 2900 ft
Mostly cloudy 3400 ft
Mostly cloudy 7500 ft
2018/08/16 18:18 KLOR 161818Z AUTO 33004KT 10SM BKN029 BKN034 BKN075 28/23 A3015 RMK AO2 LTG DSNT NW-SW CIG 029V075 BKN029 V SCT SLP191
 
KGZH - Evergreen, Alabama, USA
Distance from station: WSW 46mi, 75km
Updated: Thu, 16-Aug-2018 12:53pm CDT
Few Clouds
Few Clouds
 Wind from ESE
Wind: ESE 8 mph , 13 km/h
Temperature: 90°F , 32°C
Heat Index: 99°F , 37°C
Dew Point: 73°F , 23°C
Humidity: 59%
Barometer: 30.12 inHg , 1020 hPa
Clouds: Few Clouds
Visibility: 10 miles , 16 km
Cloud details: Few Clouds 7500 ft
2018/08/16 17:53 KGZH 161753Z AUTO 12007KT 10SM FEW075 32/23 A3012 RMK AO2 LTG DSNT SW SLP195 T03170228 10328 20233 58011
K0J4 - Florala Muni, Alabama, USA
Distance from station: S 47mi, 76km
Updated: Thu, 16-Aug-2018 12:58pm CDT
Partly cloudy
Partly cloudy
 Wind from S
Wind: S 12 mph , 19 km/h
Temperature: 82°F , 28°C
Heat Index: 86°F , 30°C
Dew Point: 72°F , 22°C
Humidity: 70%
Barometer: 30.18 inHg , 1022 hPa
Clouds: Partly cloudy
Visibility: 10 miles , 16 km
Cloud details: Few Clouds 5500 ft
Partly cloudy 9500 ft
2018/08/16 17:58 K0J4 161758Z AUTO 19010KT 10SM FEW055 SCT095 28/22 A3018 RMK AO2 SLP214 6//// T02830217 10300 20239 TSNO
KOZR - Ozark/Cairns Aaf, Alabama, USA
Distance from station: SE 49mi, 78km
Updated: Thu, 16-Aug-2018 12:56pm CDT
Mostly cloudy
Mostly cloudy
 Wind from ESE
Wind: ESE 10 mph , 17 km/h
Temperature: 88°F , 31°C
Heat Index: 98°F , 37°C
Dew Point: 75°F , 24°C
Humidity: 66%
Barometer: 30.15 inHg , 1021 hPa
Clouds: Mostly cloudy
Visibility: 10 miles , 16 km
Cloud details: Few Clouds 2600 ft
Few Clouds 14000 ft
Partly cloudy 17000 ft
Partly cloudy 20000 ft
Mostly cloudy 22000 ft
2018/08/16 17:56 KOZR 161756Z AUTO 12009KT 10SM FEW026 FEW140 SCT170 SCT200 BKN220 31/24 A3015 RMK AO2 LTG DSNT W TSB03E18TSB27E52 SLP209 60000 T03110242 10314 20234 57006 $
 
KHEY - Ft Rucker/Hanche, Alabama, USA
Distance from station: ESE 49mi, 79km
Updated: Thu, 02-Aug-2018 9:18am CDT
NOT Current
Light rain, Mostly cloudy
Light rain, Mostly cloudy
 Wind from calm
Wind: Calm
Temperature: 73°F , 23°C
Dew Point: 73°F , 23°C
Humidity: 100%
Barometer: 30.01 inHg , 1016.3 hPa
Summary: Light rain
Clouds: Mostly cloudy
Visibility: 8 miles , 13 km
Cloud details: Few Clouds 800 ft
Mostly cloudy 1600 ft
Mostly cloudy 2700 ft
2018/08/02 14:18 KHEY 021418Z AUTO 00000KT 8SM -RA FEW008 BKN016 BKN027 23/23 A3001 RMK AO2 CIG 009V017 BKN016 V OVC SLP162 $
KDHN - Dothan, Alabama, USA
Distance from station: ESE 61mi, 97km
Updated: Thu, 16-Aug-2018 1:16pm CDT
Nearby thunderstorm, Clear
Nearby thunderstorm, Clear
 Wind from E
Wind: E 6 mph , 9 km/h
Temperature: 82°F , 28°C
Heat Index: 86°F , 30°C
Dew Point: 72°F , 22°C
Humidity: 70%
Barometer: 30.19 inHg , 1022.4 hPa
Summary: Nearby Thunderstorm
Clouds: Clear
Visibility: 10 miles , 16 km
2018/08/16 18:16 KDHN 161816Z 09005KT 10SM VCTS CLR 28/22 A3019 RMK AO2 LTG DSNT NE AND S AND NW TSE10 T02830222
KCEW - Crestview, Florida, USA
Distance from station: S 66mi, 107km
Updated: Thu, 16-Aug-2018 12:53pm CDT
Light rain, Overcast
Light rain, Overcast
 Wind from SE
Wind: SE 5 mph , 7 km/h
Temperature: 79°F , 26°C
Dew Point: 75°F , 24°C
Humidity: 89%
Barometer: 30.17 inHg , 1021.7 hPa
Summary: Light rain
Clouds: Overcast
Visibility: 10 miles , 16 km
Cloud details: Few Clouds 3600 ft
Partly cloudy 7500 ft
Overcast 9000 ft
2018/08/16 17:53 KCEW 161753Z AUTO 13004KT 10SM -RA FEW036 SCT075 OVC090 26/24 A3017 RMK AO2 LTG DSNT NE AND E SLP213 P0001 60094 T02610244 10294 20233 55004
 
KEUF - Eufaula, Alabama, USA
Distance from station: ENE 73mi, 118km
Updated: Thu, 16-Aug-2018 12:58pm CDT
Thunderstorm, Clear
Thunderstorm, Clear
 Wind from SSE
Wind: SSE 9 mph , 15 km/h
Temperature: 90°F , 32°C
Heat Index: 101°F , 38°C
Dew Point: 75°F , 24°C
Humidity: 63%
Barometer: 30.15 inHg , 1021 hPa
Summary: Thunderstorm
Clouds: Clear
Visibility: 10 miles , 16 km
2018/08/16 17:58 KEUF 161758Z AUTO 16008KT 10SM TS CLR 32/24 A3015 RMK AO2 TSE10B19E35B51 SLP206 T03220239 10322 20244 56005
KJKA - Gulf Shores, Alabama, USA
Distance from station: SSW 132mi, 212km
Updated: Thu, 16-Aug-2018 1:15pm CDT
Partly cloudy
Partly cloudy
 Wind from S
Wind: S 9 mph , 15 km/h, Gust: 17 mph , 28 km/h
Temperature: 86°F , 30°C
Heat Index: 92°F , 33°C
Dew Point: 72°F , 22°C
Humidity: 62%
Barometer: 30.13 inHg , 1020.3 hPa
Clouds: Partly cloudy
Visibility: 10 miles , 16 km
Cloud details: Partly cloudy 8500 ft
2018/08/16 18:15 KJKA 161815Z AUTO 18008G15KT 120V200 10SM SCT085 30/22 A3013 RMK AO2 LTG DSNT ALQS T03020219
KLSF - Ft Benning/Colum, Georgia, USA
Distance from station: SNE 89mi, 143km
Updated: Thu, 16-Aug-2018 12:56pm CDT
Mostly cloudy
Mostly cloudy
 Wind from S
Wind: S 3 mph , 6 km/h
Temperature: 88°F , 31°C
Heat Index: 100°F , 38°C
Dew Point: 77°F , 25°C
Humidity: 70%
Barometer: 30.14 inHg , 1020.7 hPa
Clouds: Mostly cloudy
Visibility: 10 miles , 16 km
Cloud details: Few Clouds 11000 ft
Partly cloudy 14000 ft
Mostly cloudy 17000 ft
2018/08/16 17:56 KLSF 161756Z AUTO 17003KT 10SM FEW110 SCT140 BKN170 31/25 A3014 RMK AO2 LTG DSNT SE SLP209 T03140247 10314 20238 58009
 
KMOB - Mobile/Bates, Alabama, USA
Distance from station: SW 125mi, 202km
Updated: Thu, 16-Aug-2018 12:56pm CDT
Mostly cloudy
Mostly cloudy
 Wind from SSW
Wind: SSW 9 mph , 15 km/h
Temperature: 88°F , 31°C
Heat Index: 96°F , 36°C
Dew Point: 73°F , 23°C
Humidity: 62%
Barometer: 30.13 inHg , 1020.3 hPa
Clouds: Mostly cloudy
Visibility: 7 miles , 11 km
Cloud details: Few Clouds 2500 ft
Partly cloudy 5000 ft
Mostly cloudy 22000 ft
2018/08/16 17:56 KMOB 161756Z 20008KT 7SM FEW025 SCT050 BKN220 31/23 A3013 RMK AO2 LTG DSNT N AND NW SLP198 CB DSNT ALQDS 60000 T03060228 10317 20250 58008
KNMM - Meridian Nas, Mississippi, USA
Distance from station: WNW 151mi, 243km
Updated: Thu, 16-Aug-2018 12:56pm CDT
Mostly cloudy
Mostly cloudy
 Wind from WSW
Wind: WSW 7 mph , 11 km/h
Temperature: 91°F , 33°C
Heat Index: 100°F , 38°C
Dew Point: 73°F , 23°C
Humidity: 56%
Barometer: 30.10 inHg , 1019.3 hPa
Clouds: Mostly cloudy
Visibility: 10 miles , 16 km
Cloud details: Partly cloudy 4000 ft
Mostly cloudy 30000 ft
2018/08/16 17:56 KNMM 161756Z 25006KT 10SM SCT040 BKN300 33/23 A3010 RMK AO2 SLP198 T03330233 10339 20244 58009
KQHY - Hurlbert (Ft Walton Bch), Florida, USA
Distance from station: S 94mi, 151km
Updated: Thu, 16-Aug-2018 12:56pm CDT
Few Clouds
Few Clouds
 Wind from SSE
Wind: SSE 6 mph , 9 km/h
Temperature: 86°F , 30°C
Heat Index: 95°F , 35°C
Dew Point: 75°F , 24°C
Humidity: 70%
Barometer: 30.16 inHg , 1021.3 hPa
Clouds: Few Clouds
Visibility: 10 miles , 16 km
Cloud details: Few Clouds 22000 ft
2018/08/16 17:56 KQHY 161756Z AUTO 16005KT 10SM FEW220 30/24 A3016 RMK AO2 LTG DSNT NE-E AND S AND NW SLP219 60001 T03030244 10303 20266 55000 $
 
KTCL - Tuscaloosa, Alabama, USA
Distance from station: NNW 129mi, 207km
Updated: Thu, 16-Aug-2018 12:53pm CDT
Clear
Clear
 Wind from S
Wind: S 9 mph , 15 km/h
Temperature: 91°F , 33°C
Heat Index: 98°F , 37°C
Dew Point: 72°F , 22°C
Humidity: 52%
Barometer: 30.11 inHg , 1019.6 hPa
Clouds: Clear
Visibility: 10 miles , 16 km
2018/08/16 17:53 KTCL 161753Z 18008KT 10SM CLR 33/22 A3011 RMK AO2 SLP193 T03330222 10333 20244 58009
KECP - Panama City, Florida, USA
Distance from station: SSE 122mi, 196km
Updated: Thu, 16-Aug-2018 12:53pm CDT
Few Clouds
Few Clouds
 Wind from SSW
Wind: SSW 12 mph , 19 km/h
Temperature: 82°F , 28°C
Heat Index: 89°F , 32°C
Dew Point: 75°F , 24°C
Humidity: 79%
Barometer: 30.16 inHg , 1021.3 hPa
Clouds: Few Clouds
Visibility: 10 miles , 16 km
Cloud details: Few Clouds 3000 ft
2018/08/16 17:53 KECP 161753Z 20010KT 10SM FEW030 28/24 A3016 RMK AO2 LTG DSNT N SLP224 60024 T02830239 10294 20239 55001
KCBM - Columbus Afb, Mississippi, USA
Distance from station: NW 175mi, 282km
Updated: Thu, 16-Aug-2018 12:56pm CDT
Few Clouds
Few Clouds
 Wind from S
Wind: S 7 mph , 11 km/h
Temperature: 93°F , 34°C
Heat Index: 105°F , 41°C
Dew Point: 75°F , 24°C
Humidity: 56%
Barometer: 30.08 inHg , 1018.6 hPa
Clouds: Few Clouds
Visibility: 10 miles , 16 km
Cloud details: Few Clouds 19000 ft
2018/08/16 17:56 KCBM 161756Z 17006KT 10SM FEW190 34/24 A3008 RMK AO2A LTG DSNT NW SLP186 T03360241 10337 20245 57010 $
 
KBHM - Birmingham, Alabama, USA
Distance from station: N 132mi, 212km
Updated: Thu, 16-Aug-2018 12:53pm CDT
Mostly cloudy
Mostly cloudy
 Wind from S
Wind: S 7 mph , 11 km/h
Temperature: 90°F , 32°C
Heat Index: 97°F , 36°C
Dew Point: 72°F , 22°C
Humidity: 55%
Barometer: 30.16 inHg , 1021.3 hPa
Clouds: Mostly cloudy
Visibility: 10 miles , 16 km
Cloud details: Partly cloudy 4500 ft
Mostly cloudy 25000 ft
2018/08/16 17:53 KBHM 161753Z 19006KT 10SM SCT045 BKN250 32/22 A3016 RMK AO2 SLP201 T03220217 10333 20244 58007
KAAF - Apalachicola, Florida, USA
Distance from station: SSE 156mi, 250km
Updated: Thu, 16-Aug-2018 12:53pm CDT
Clear
Clear
 Wind from SSE
Wind: SSE 8 mph , 13 km/h
Temperature: 88°F , 31°C
Heat Index: 100°F , 38°C
Dew Point: 77°F , 25°C
Humidity: 70%
Barometer: 30.16 inHg , 1021.3 hPa
Clouds: Clear
Visibility: 10 miles , 16 km
2018/08/16 17:53 KAAF 161753Z AUTO 16007KT 10SM CLR 31/25 A3016 RMK AO2 SLP211 T03060250 10317 20267 52001
KATL - Atlanta, Georgia, USA
Distance from station: NE 177mi, 287km
Updated: Thu, 16-Aug-2018 12:52pm CDT
Clear
Clear
 Wind from varies
Wind: varies 3 mph , 6 km/h
Temperature: 90°F , 32°C
Heat Index: 97°F , 36°C
Dew Point: 72°F , 22°C
Humidity: 55%
Barometer: 30.17 inHg , 1021.7 hPa
Clouds: Clear
Visibility: 10 miles , 16 km
2018/08/16 17:52 KATL 161752Z VRB03KT 10SM CLR 32/22 A3017 RMK AO2 SLP206 T03170217 10322 20239 58004
 
KGPT - Gulfport, Mississippi, USA
Distance from station: SW 192mi, 309km
Updated: Thu, 16-Aug-2018 1:14pm CDT
Nearby thunderstorm, Partly cloudy
Nearby thunderstorm, Partly cloudy
 Wind from S
Wind: S 8 mph , 13 km/h
Temperature: 90°F , 32°C
Heat Index: 104°F , 40°C
Dew Point: 77°F , 25°C
Humidity: 67%
Barometer: 30.10 inHg , 1019.3 hPa
Summary: Nearby Thunderstorm
Clouds: Partly cloudy
Visibility: 10 miles , 16 km
Cloud details: Partly cloudy 2500 ft
2018/08/16 18:14 KGPT 161814Z 17007KT 10SM VCTS SCT025 32/25 A3010 RMK AO2 LTG DSNT ALQDS T03170250
KNEW - New Orleans/Lake, Louisiana, USA
Distance from station: SW 255mi, 410km
Updated: Thu, 16-Aug-2018 12:53pm CDT
Clear
Clear
 Wind from E
Wind: E 7 mph , 11 km/h
Temperature: 88°F , 31°C
Heat Index: 98°F , 37°C
Dew Point: 75°F , 24°C
Humidity: 66%
Barometer: 30.10 inHg , 1019.3 hPa
Clouds: Clear
Visibility: 10 miles , 16 km
2018/08/16 17:53 KNEW 161753Z 09006KT 10SM CLR 31/24 A3010 RMK AO2 LTG DSNT NE-S SLP187 T03060244 10306 20272 58002
KP92 - Salt Point, Louisiana, USA
Distance from station: SW 347mi, 559km
Updated: Thu, 16-Aug-2018 12:53pm CDT

 Wind from SSW
Wind: SSW 3 mph , 6 km/h
Barometer: 30.07 inHg , 1018.3 hPa
2018/08/16 17:53 KP92 161753Z AUTO 21003KT A3007 RMK AO1 SLP184 60002 58003 $